createdAt,value
2018-06-03T00:01:39.504Z,16.37
2018-06-03T00:04:07.995Z,16.60
2018-06-03T00:06:36.535Z,16.61
2018-06-03T00:09:05.788Z,16.55
2018-06-03T00:11:34.283Z,16.67
2018-06-03T00:14:02.788Z,16.48
2018-06-03T00:16:31.355Z,16.48
2018-06-03T00:18:59.802Z,16.35
2018-06-03T00:21:51.423Z,16.31
2018-06-03T00:24:19.976Z,16.39
2018-06-03T00:26:48.487Z,16.34
2018-06-03T00:29:17.011Z,16.37
2018-06-03T00:31:45.534Z,16.25
2018-06-03T00:34:14.077Z,16.27
2018-06-03T00:36:47.852Z,16.32
2018-06-03T00:39:16.505Z,16.19
2018-06-03T00:41:45.011Z,16.15
2018-06-03T00:44:13.500Z,16.26
2018-06-03T00:46:41.996Z,16.23
2018-06-03T00:49:10.556Z,16.17
2018-06-03T00:51:39.052Z,16.33
2018-06-03T00:54:07.832Z,16.08
2018-06-03T00:56:47.461Z,16.08
2018-06-03T00:59:15.949Z,16.27
2018-06-03T01:01:44.392Z,16.11
2018-06-03T01:04:12.892Z,16.02
2018-06-03T01:06:41.535Z,16.02
2018-06-03T01:09:10.068Z,16.21
2018-06-03T01:11:38.756Z,16.30
2018-06-03T01:14:10.776Z,16.39
2018-06-03T01:16:39.392Z,16.13
2018-06-03T01:19:07.825Z,16.03
2018-06-03T01:21:36.352Z,16.03
2018-06-03T01:24:04.876Z,15.92
2018-06-03T01:26:33.447Z,15.89
2018-06-03T01:29:02.196Z,15.95
2018-06-03T01:31:30.755Z,15.79
2018-06-03T01:33:59.220Z,15.75
2018-06-03T01:36:27.744Z,15.77
2018-06-03T01:38:56.207Z,15.58
2018-06-03T01:41:24.755Z,15.73
2018-06-03T01:43:53.291Z,15.63
2018-06-03T01:46:21.807Z,15.61
2018-06-03T01:48:50.266Z,15.55
2018-06-03T01:51:18.789Z,15.61
2018-06-03T01:53:47.259Z,15.56
2018-06-03T01:56:15.723Z,15.48
2018-06-03T01:58:44.200Z,15.57
2018-06-03T02:01:12.701Z,15.38
2018-06-03T02:03:41.147Z,15.39
2018-06-03T02:06:09.635Z,15.50
2018-06-03T02:08:38.100Z,15.29
2018-06-03T02:11:06.664Z,15.49
2018-06-03T02:13:35.204Z,15.45
2018-06-03T02:16:04.012Z,15.32
2018-06-03T02:18:32.644Z,15.43
2018-06-03T02:21:01.064Z,15.39
2018-06-03T02:23:29.708Z,15.41
2018-06-03T02:25:58.156Z,15.31
2018-06-03T02:28:26.712Z,15.28
2018-06-03T02:30:55.152Z,15.31
2018-06-03T02:33:23.596Z,15.30
2018-06-03T02:35:52.251Z,15.27
2018-06-03T02:38:20.707Z,15.26
2018-06-03T02:40:49.141Z,15.19
2018-06-03T02:43:17.640Z,15.09
2018-06-03T02:45:46.173Z,15.16
2018-06-03T02:48:15.135Z,15.14
2018-06-03T02:50:43.587Z,15.28
2018-06-03T02:53:12.064Z,15.07
2018-06-03T02:55:40.608Z,15.03
2018-06-03T02:58:09.024Z,14.86
2018-06-03T03:00:37.704Z,14.81
2018-06-03T03:03:06.148Z,14.87
2018-06-03T03:05:34.583Z,15.01
2018-06-03T03:08:03.037Z,14.76
2018-06-03T03:10:31.540Z,14.79
2018-06-03T03:13:00.280Z,14.74
2018-06-03T03:15:28.811Z,14.76
2018-06-03T03:17:57.295Z,14.79
2018-06-03T03:20:25.744Z,14.93
2018-06-03T03:22:54.187Z,14.69
2018-06-03T03:25:22.709Z,14.83
2018-06-03T03:27:51.176Z,14.75
2018-06-03T03:30:19.679Z,14.78
2018-06-03T03:32:48.174Z,14.71
2018-06-03T03:35:16.747Z,14.71
2018-06-03T03:37:45.628Z,14.64
2018-06-03T03:40:14.207Z,14.63
2018-06-03T03:42:42.641Z,14.59
2018-06-03T03:45:11.172Z,14.92
2018-06-03T03:47:39.627Z,14.77
2018-06-03T03:50:08.099Z,14.69
2018-06-03T03:52:36.543Z,14.70
2018-06-03T03:55:05.220Z,14.67
2018-06-03T03:57:33.715Z,14.71
2018-06-03T04:00:02.252Z,14.67
2018-06-03T04:02:30.726Z,14.71
2018-06-03T04:04:59.223Z,14.80
2018-06-03T04:07:27.966Z,14.87
2018-06-03T04:09:56.543Z,15.04
2018-06-03T04:12:24.992Z,15.06
2018-06-03T04:14:53.536Z,15.09
2018-06-03T04:17:22.063Z,15.02
2018-06-03T04:19:50.639Z,15.00
2018-06-03T04:22:19.167Z,15.05
2018-06-03T04:24:47.651Z,15.11
2018-06-03T04:27:16.184Z,15.25
2018-06-03T04:29:44.649Z,15.42
2018-06-03T04:32:13.424Z,15.88
2018-06-03T04:34:41.936Z,16.54
2018-06-03T04:37:10.451Z,17.10
2018-06-03T04:39:38.947Z,17.86
2018-06-03T04:42:07.439Z,18.27
2018-06-03T04:44:36.199Z,18.79
2018-06-03T04:47:04.659Z,18.83
2018-06-03T04:49:33.099Z,19.04
2018-06-03T04:52:01.634Z,19.35
2018-06-03T04:54:30.136Z,19.37
2018-06-03T04:56:58.606Z,19.06
2018-06-03T04:59:27.073Z,19.60
2018-06-03T05:01:55.583Z,19.41
2018-06-03T05:04:24.119Z,19.64
2018-06-03T05:06:52.671Z,20.04
2018-06-03T05:09:21.344Z,20.12
2018-06-03T05:11:49.796Z,20.07
2018-06-03T05:14:18.339Z,20.37
2018-06-03T05:16:46.849Z,20.58
2018-06-03T05:19:15.393Z,20.40
2018-06-03T05:21:43.899Z,20.83
2018-06-03T05:24:12.371Z,20.67
2018-06-03T05:26:41.003Z,20.90
2018-06-03T05:29:09.524Z,21.26
2018-06-03T05:31:38.035Z,21.32
2018-06-03T05:34:06.735Z,20.95
2018-06-03T05:36:35.223Z,22.05
2018-06-03T05:39:04.598Z,21.76
2018-06-03T05:41:33.139Z,21.66
2018-06-03T05:44:01.599Z,22.08
2018-06-03T05:46:30.131Z,21.98
2018-06-03T05:48:58.656Z,21.77
2018-06-03T05:51:27.274Z,21.96
2018-06-03T05:53:55.783Z,21.60
2018-06-03T05:56:24.295Z,22.02
2018-06-03T05:58:52.727Z,22.44
2018-06-03T06:01:21.176Z,22.00
2018-06-03T06:03:49.956Z,21.84
2018-06-03T06:06:18.596Z,22.12
2018-06-03T06:08:47.063Z,21.88
2018-06-03T06:11:15.591Z,22.38
2018-06-03T06:13:44.110Z,22.11
2018-06-03T06:16:12.736Z,22.43
2018-06-03T06:18:41.344Z,23.16
2018-06-03T06:21:09.872Z,22.37
2018-06-03T06:23:38.331Z,22.53
2018-06-03T06:26:06.935Z,22.67
2018-06-03T06:28:35.548Z,22.60
2018-06-03T06:31:03.976Z,22.50
2018-06-03T06:33:32.431Z,22.31
2018-06-03T06:36:00.945Z,22.74
2018-06-03T06:38:29.405Z,22.90
2018-06-03T06:40:57.880Z,23.05
2018-06-03T06:43:26.388Z,22.84
2018-06-03T06:45:54.995Z,22.93
2018-06-03T06:48:23.496Z,23.02
2018-06-03T06:50:51.976Z,23.52
2018-06-03T06:53:20.499Z,23.71
2018-06-03T06:55:48.969Z,23.32
2018-06-03T06:58:17.655Z,23.35
2018-06-03T07:00:46.193Z,23.40
2018-06-03T07:03:14.673Z,23.19
2018-06-03T07:05:43.419Z,22.86
2018-06-03T07:08:11.867Z,23.15
2018-06-03T07:10:40.308Z,23.45
2018-06-03T07:13:08.878Z,23.87
2018-06-03T07:15:37.332Z,23.84
2018-06-03T07:18:05.845Z,23.22
2018-06-03T07:20:34.327Z,23.50
2018-06-03T07:23:02.815Z,23.61
2018-06-03T07:25:31.333Z,23.34
2018-06-03T07:27:59.811Z,23.12
2018-06-03T07:30:28.503Z,23.46
2018-06-03T07:32:57.013Z,23.60
2018-06-03T07:35:25.591Z,23.89
2018-06-03T07:37:54.064Z,23.97
2018-06-03T07:40:22.471Z,23.80
2018-06-03T07:42:51.347Z,23.80
2018-06-03T07:45:19.900Z,24.24
2018-06-03T07:47:48.347Z,24.34
2018-06-03T07:50:16.889Z,24.17
2018-06-03T07:52:45.473Z,24.11
2018-06-03T07:55:14.228Z,23.68
2018-06-03T07:57:42.660Z,23.90
2018-06-03T08:00:11.195Z,24.06
2018-06-03T08:02:39.663Z,24.11
2018-06-03T08:05:08.173Z,24.28
2018-06-03T08:07:36.804Z,24.55
2018-06-03T08:10:05.472Z,24.13
2018-06-03T08:12:34.004Z,24.47
2018-06-03T08:15:02.444Z,24.88
2018-06-03T08:17:31.011Z,24.62
2018-06-03T08:19:59.894Z,24.17
2018-06-03T08:22:28.535Z,24.17
2018-06-03T08:24:56.960Z,24.06
2018-06-03T08:27:25.524Z,23.56
2018-06-03T08:29:54.033Z,23.71
2018-06-03T08:32:22.689Z,23.89
2018-06-03T08:34:51.170Z,24.30
2018-06-03T08:37:19.679Z,24.64
2018-06-03T08:39:48.217Z,24.63
2018-06-03T08:42:16.700Z,24.37
2018-06-03T08:44:45.436Z,24.86
2018-06-03T08:47:13.968Z,24.88
2018-06-03T08:49:42.721Z,24.43
2018-06-03T08:52:11.696Z,24.46
2018-06-03T08:54:40.135Z,24.83
2018-06-03T08:57:08.673Z,24.59
2018-06-03T08:59:37.165Z,24.13
2018-06-03T09:02:05.695Z,24.51
2018-06-03T09:04:34.172Z,24.55
2018-06-03T09:07:02.632Z,24.38
2018-06-03T09:09:31.560Z,24.33
2018-06-03T09:12:00.137Z,24.71
2018-06-03T09:14:28.636Z,24.69
2018-06-03T09:16:57.067Z,24.03
2018-06-03T09:19:25.566Z,24.25
2018-06-03T09:21:54.433Z,24.30
2018-06-03T09:24:23.115Z,24.37
2018-06-03T09:26:51.556Z,24.76
2018-06-03T09:29:20.119Z,24.89
2018-06-03T09:31:48.592Z,25.10
2018-06-03T09:34:17.093Z,25.28
2018-06-03T09:36:45.584Z,26.07
2018-06-03T09:39:14.144Z,25.52
2018-06-03T09:41:42.683Z,25.42
2018-06-03T09:44:11.299Z,25.31
2018-06-03T09:46:39.777Z,25.28
2018-06-03T09:49:08.188Z,25.36
2018-06-03T09:51:36.672Z,25.46
2018-06-03T09:54:05.344Z,25.84
2018-06-03T09:56:33.793Z,25.79
2018-06-03T09:59:02.287Z,25.73
2018-06-03T10:01:30.820Z,25.38
2018-06-03T10:03:59.244Z,25.55
2018-06-03T10:06:27.724Z,25.37
2018-06-03T10:08:56.208Z,25.72
2018-06-03T10:11:24.696Z,25.89
2018-06-03T10:13:53.574Z,25.98
2018-06-03T10:16:22.045Z,26.65
2018-06-03T10:18:50.581Z,26.15
2018-06-03T10:21:19.104Z,26.49
2018-06-03T10:23:47.567Z,26.53
2018-06-03T10:26:16.263Z,26.37
2018-06-03T10:28:44.775Z,26.96
2018-06-03T10:31:13.310Z,26.91
2018-06-03T10:33:41.779Z,26.75
2018-06-03T10:36:10.267Z,26.86
2018-06-03T10:38:39.024Z,26.76
2018-06-03T10:41:07.560Z,26.65
2018-06-03T10:43:36.040Z,27.16
2018-06-03T10:46:04.566Z,26.54
2018-06-03T10:48:33.024Z,26.53
2018-06-03T10:51:01.923Z,26.71
2018-06-03T10:53:30.444Z,26.77
2018-06-03T10:55:58.880Z,26.84
2018-06-03T10:58:27.459Z,26.60
2018-06-03T11:00:55.935Z,26.17
2018-06-03T11:03:24.783Z,26.22
2018-06-03T11:05:53.331Z,26.32
2018-06-03T11:08:21.742Z,26.73
2018-06-03T11:10:50.219Z,26.37
2018-06-03T11:13:18.700Z,26.35
2018-06-03T11:15:47.184Z,27.16
2018-06-03T11:18:15.672Z,27.44
2018-06-03T11:20:44.164Z,26.86
2018-06-03T11:23:12.691Z,26.50
2018-06-03T11:25:41.156Z,26.81
2018-06-03T11:28:10.557Z,26.97
2018-06-03T11:30:39.075Z,27.70
2018-06-03T11:33:07.495Z,27.65
2018-06-03T11:35:36.078Z,28.19
2018-06-03T11:38:04.548Z,28.86
2018-06-03T11:40:33.317Z,29.04
2018-06-03T11:43:01.762Z,28.97
2018-06-03T11:45:30.220Z,27.81
2018-06-03T11:47:58.879Z,27.79
2018-06-03T11:50:27.445Z,26.93
2018-06-03T11:52:55.988Z,26.46
2018-06-03T11:55:24.546Z,25.98
2018-06-03T11:58:35.475Z,26.02
2018-06-03T12:01:03.971Z,25.59
2018-06-03T12:03:32.622Z,25.23
2018-06-03T12:06:01.131Z,25.80
2018-06-03T12:08:29.580Z,25.95
2018-06-03T12:10:58.355Z,26.09
2018-06-03T12:13:26.888Z,26.08
2018-06-03T12:15:55.392Z,26.58
2018-06-03T12:18:23.880Z,27.15
2018-06-03T12:20:52.335Z,26.55
2018-06-03T12:23:21.338Z,26.42
2018-06-03T12:25:49.868Z,26.47
2018-06-03T12:28:18.321Z,26.38
2018-06-03T12:30:46.881Z,26.35
2018-06-03T12:33:15.331Z,26.60
2018-06-03T12:35:44.216Z,26.77
2018-06-03T12:38:12.768Z,25.83
2018-06-03T12:40:41.239Z,26.04
2018-06-03T12:43:09.743Z,26.62
2018-06-03T12:45:38.208Z,26.76
2018-06-03T12:48:06.973Z,26.92
2018-06-03T12:50:35.432Z,26.57
2018-06-03T12:53:04.116Z,27.45
2018-06-03T12:55:32.612Z,26.96
2018-06-03T12:58:01.109Z,27.37
2018-06-03T13:00:29.549Z,27.41
2018-06-03T13:02:57.996Z,27.24
2018-06-03T13:05:26.656Z,27.39
2018-06-03T13:07:55.199Z,27.09
2018-06-03T13:10:23.687Z,27.28
2018-06-03T13:12:52.200Z,27.06
2018-06-03T13:15:20.672Z,27.74
2018-06-03T13:17:49.195Z,27.92
2018-06-03T13:20:17.638Z,28.00
2018-06-03T13:22:46.163Z,28.04
2018-06-03T13:25:14.616Z,28.40
2018-06-03T13:27:43.132Z,27.14
2018-06-03T13:30:11.612Z,26.92
2018-06-03T13:32:40.119Z,26.85
2018-06-03T13:35:08.659Z,27.18
2018-06-03T13:37:37.127Z,27.52
2018-06-03T13:40:05.687Z,27.52
2018-06-03T13:42:34.211Z,26.76
2018-06-03T13:45:02.717Z,27.11
2018-06-03T13:47:31.128Z,27.18
2018-06-03T13:49:59.747Z,27.10
2018-06-03T13:52:28.292Z,27.45
2018-06-03T13:54:56.777Z,27.04
2018-06-03T13:57:25.215Z,26.77
2018-06-03T13:59:53.695Z,27.42
2018-06-03T14:02:22.541Z,27.32
2018-06-03T14:04:51.291Z,27.23
2018-06-03T14:07:19.824Z,27.30
2018-06-03T14:09:48.245Z,26.91
2018-06-03T14:12:17.202Z,27.03
2018-06-03T14:14:45.643Z,27.10
2018-06-03T14:17:14.267Z,27.00
2018-06-03T14:19:42.793Z,27.07
2018-06-03T14:22:11.319Z,27.17
2018-06-03T14:24:39.839Z,27.56
2018-06-03T14:27:08.324Z,27.36
2018-06-03T14:29:36.764Z,27.70
2018-06-03T14:32:05.260Z,27.33
2018-06-03T14:34:33.703Z,27.19
2018-06-03T14:37:02.131Z,27.01
2018-06-03T14:39:30.607Z,27.20
2018-06-03T14:41:59.075Z,27.42
2018-06-03T14:44:27.687Z,27.43
2018-06-03T14:46:56.207Z,27.98
2018-06-03T14:49:24.628Z,27.45
2018-06-03T14:51:53.192Z,27.56
2018-06-03T14:54:21.608Z,27.86
2018-06-03T14:56:50.176Z,27.78
2018-06-03T14:59:21.624Z,28.00
2018-06-03T15:01:50.164Z,27.98
2018-06-03T15:04:18.659Z,27.88
2018-06-03T15:06:47.144Z,28.03
2018-06-03T15:09:15.662Z,28.26
2018-06-03T15:11:44.144Z,28.29
2018-06-03T15:14:12.644Z,28.03
2018-06-03T15:16:41.053Z,27.54
2018-06-03T15:19:09.632Z,27.39
2018-06-03T15:21:38.139Z,26.99
2018-06-03T15:24:06.672Z,27.18
2018-06-03T15:26:35.112Z,27.26
2018-06-03T15:29:03.691Z,27.08
2018-06-03T15:31:32.229Z,27.12
2018-06-03T15:34:00.740Z,27.07
2018-06-03T15:36:29.220Z,27.41
2018-06-03T15:38:57.648Z,27.62
2018-06-03T15:41:26.108Z,27.88
2018-06-03T15:43:54.655Z,28.13
2018-06-03T15:46:23.097Z,27.85
2018-06-03T15:48:51.623Z,27.89
2018-06-03T15:51:20.060Z,27.51
2018-06-03T15:53:48.618Z,27.62
2018-06-03T15:56:17.056Z,27.36
2018-06-03T15:58:45.607Z,27.58
2018-06-03T16:01:14.559Z,27.74
2018-06-03T16:03:42.987Z,28.06
2018-06-03T16:06:11.421Z,27.90
2018-06-03T16:08:39.896Z,27.45
2018-06-03T16:11:08.414Z,27.13
2018-06-03T16:13:36.945Z,27.18
2018-06-03T16:16:05.703Z,26.86
2018-06-03T16:18:34.283Z,27.48
2018-06-03T16:21:02.725Z,27.41
2018-06-03T16:23:31.251Z,27.50
2018-06-03T16:25:59.772Z,27.69
2018-06-03T16:28:28.276Z,27.14
2018-06-03T16:30:56.728Z,27.63
2018-06-03T16:33:25.257Z,27.27
2018-06-03T16:35:53.721Z,27.10
2018-06-03T16:38:22.166Z,27.10
2018-06-03T16:40:50.707Z,27.35
2018-06-03T16:43:19.368Z,27.58
2018-06-03T16:45:47.898Z,27.57
2018-06-03T16:48:16.400Z,27.52
2018-06-03T16:50:44.837Z,27.52
2018-06-03T16:53:13.525Z,27.48
2018-06-03T16:55:42.088Z,27.60
2018-06-03T16:58:10.548Z,27.44
2018-06-03T17:00:39.072Z,27.57
2018-06-03T17:03:07.483Z,27.44
2018-06-03T17:05:35.906Z,27.37
2018-06-03T17:08:04.461Z,27.30
2018-06-03T17:10:32.928Z,27.19
2018-06-03T17:13:01.384Z,27.38
2018-06-03T17:15:29.828Z,27.18
2018-06-03T17:17:58.348Z,26.80
2018-06-03T17:20:26.893Z,26.82
2018-06-03T17:22:55.306Z,26.97
2018-06-03T17:25:23.799Z,26.77
2018-06-03T17:27:52.228Z,26.86
2018-06-03T17:30:20.844Z,26.98
2018-06-03T17:32:49.361Z,27.04
2018-06-03T17:35:17.977Z,27.13
2018-06-03T17:37:46.467Z,26.99
2018-06-03T17:40:14.936Z,27.03
2018-06-03T17:42:43.728Z,27.19
2018-06-03T17:45:12.217Z,26.90
2018-06-03T17:47:40.734Z,26.77
2018-06-03T17:50:09.247Z,26.78
2018-06-03T17:52:37.748Z,26.46
2018-06-03T17:55:06.275Z,26.45
2018-06-03T17:57:34.821Z,26.72
2018-06-03T18:00:03.411Z,26.75
2018-06-03T18:02:32.007Z,26.51
2018-06-03T18:05:00.532Z,26.55
2018-06-03T18:07:29.011Z,26.57
2018-06-03T18:09:57.484Z,26.54
2018-06-03T18:12:25.997Z,26.35
2018-06-03T18:14:54.491Z,26.27
2018-06-03T18:17:22.960Z,26.05
2018-06-03T18:19:51.828Z,26.07
2018-06-03T18:22:20.349Z,26.31
2018-06-03T18:24:48.824Z,26.03
2018-06-03T18:27:17.299Z,25.94
2018-06-03T18:29:45.774Z,26.13
2018-06-03T18:32:14.271Z,25.81
2018-06-03T18:34:42.740Z,25.64
2018-06-03T18:37:11.215Z,25.73
2018-06-03T18:39:39.668Z,25.75
2018-06-03T18:42:08.248Z,25.65
2018-06-03T18:44:36.764Z,25.64
2018-06-03T18:47:05.305Z,25.24
2018-06-03T18:49:33.831Z,25.05
2018-06-03T18:52:02.428Z,25.00
2018-06-03T18:54:30.892Z,24.97
2018-06-03T18:56:59.390Z,24.97
2018-06-03T18:59:27.880Z,24.50
2018-06-03T19:01:56.562Z,24.45
2018-06-03T19:04:24.983Z,24.63
2018-06-03T19:06:53.416Z,24.40
2018-06-03T19:09:21.909Z,24.41
2018-06-03T19:11:50.532Z,24.17
2018-06-03T19:14:19.205Z,24.21
2018-06-03T19:16:47.765Z,24.13
2018-06-03T19:19:16.237Z,23.93
2018-06-03T19:21:44.776Z,24.02
2018-06-03T19:24:13.344Z,24.10
2018-06-03T19:26:41.833Z,23.78
2018-06-03T19:29:10.332Z,23.59
2018-06-03T19:31:39.376Z,23.72
2018-06-03T19:34:07.907Z,23.59
2018-06-03T19:36:36.348Z,23.46
2018-06-03T19:39:06.896Z,23.67
2018-06-03T19:41:35.431Z,23.48
2018-06-03T19:44:03.960Z,23.29
2018-06-03T19:46:32.454Z,23.21
2018-06-03T19:49:00.916Z,23.49
2018-06-03T19:51:29.471Z,23.40
2018-06-03T19:53:58.071Z,23.47
2018-06-03T19:56:26.651Z,23.34
2018-06-03T19:58:55.134Z,23.43
2018-06-03T20:01:23.719Z,23.35
2018-06-03T20:03:52.230Z,23.12
2018-06-03T20:06:20.740Z,23.12
2018-06-03T20:08:49.174Z,23.36
2018-06-03T20:11:17.690Z,22.99
2018-06-03T20:13:46.196Z,22.94
2018-06-03T20:16:14.675Z,22.82
2018-06-03T20:18:43.256Z,22.78
2018-06-03T20:21:12.979Z,22.56
2018-06-03T20:23:41.796Z,22.58
2018-06-03T20:26:11.285Z,22.50
2018-06-03T20:28:39.925Z,22.57
2018-06-03T20:31:08.424Z,22.71
2018-06-03T20:33:36.944Z,22.93
2018-06-03T20:36:05.511Z,22.45
2018-06-03T20:38:33.998Z,21.87
2018-06-03T20:41:02.557Z,21.88
2018-06-03T20:43:31.077Z,21.77
2018-06-03T20:45:59.592Z,21.70
2018-06-03T20:48:28.075Z,21.45
2018-06-03T20:50:56.535Z,21.46
2018-06-03T20:53:25.000Z,21.25
2018-06-03T20:55:53.463Z,21.32
2018-06-03T20:58:21.968Z,21.37
2018-06-03T21:00:50.416Z,21.18
2018-06-03T21:03:18.915Z,21.16
2018-06-03T21:05:47.536Z,20.93
2018-06-03T21:08:16.010Z,21.20
2018-06-03T21:10:44.563Z,21.87
2018-06-03T21:13:13.029Z,21.38
2018-06-03T21:15:41.523Z,21.26
2018-06-03T21:18:09.931Z,21.31
2018-06-03T21:20:38.479Z,21.10
2018-06-03T21:23:06.955Z,20.96
2018-06-03T21:25:35.483Z,20.58
2018-06-03T21:28:04.556Z,20.70
2018-06-03T21:30:33.071Z,20.71
2018-06-03T21:33:01.740Z,20.75
2018-06-03T21:35:30.275Z,20.81
2018-06-03T21:37:58.751Z,20.60
2018-06-03T21:40:27.489Z,20.40
2018-06-03T21:42:55.908Z,20.08
2018-06-03T21:45:24.331Z,19.87
2018-06-03T21:47:52.970Z,19.49
2018-06-03T21:50:21.542Z,19.53
2018-06-03T21:52:50.187Z,19.75
2018-06-03T21:55:18.615Z,20.06
2018-06-03T21:57:47.036Z,19.99
2018-06-03T22:00:15.519Z,19.98
2018-06-03T22:02:44.012Z,20.25
2018-06-03T22:05:12.772Z,20.10
2018-06-03T22:07:41.309Z,19.85
2018-06-03T22:10:09.803Z,19.90
2018-06-03T22:12:38.363Z,19.68
2018-06-03T22:15:07.029Z,19.30
2018-06-03T22:17:35.615Z,19.55
2018-06-03T22:20:04.159Z,19.37
2018-06-03T22:22:32.651Z,19.25
2018-06-03T22:25:01.127Z,19.24
2018-06-03T22:27:29.548Z,19.13
2018-06-03T22:29:58.178Z,18.95
2018-06-03T22:32:26.596Z,18.79
2018-06-03T22:34:55.020Z,18.83
2018-06-03T22:37:23.463Z,18.72
2018-06-03T22:39:51.920Z,18.74
2018-06-03T22:42:20.419Z,18.51
2018-06-03T22:44:48.899Z,18.82
2018-06-03T22:47:17.668Z,18.68
2018-06-03T22:49:46.110Z,18.56
2018-06-03T22:52:14.596Z,18.65
2018-06-03T22:54:43.199Z,18.42
2018-06-03T22:57:53.600Z,18.54
2018-06-03T23:00:30.008Z,18.68
2018-06-03T23:03:03.834Z,18.59
2018-06-03T23:05:32.405Z,18.30
2018-06-03T23:08:00.880Z,18.57
2018-06-03T23:10:29.390Z,18.50
2018-06-03T23:12:57.831Z,17.86
2018-06-03T23:15:26.290Z,18.24
2018-06-03T23:17:54.999Z,17.81
2018-06-03T23:20:23.531Z,18.07
2018-06-03T23:22:52.067Z,18.19
2018-06-03T23:25:20.557Z,17.94
2018-06-03T23:27:49.109Z,18.27
2018-06-03T23:30:17.778Z,18.48
2018-06-03T23:32:46.260Z,18.21
2018-06-03T23:35:14.695Z,18.13
2018-06-03T23:37:43.139Z,18.39
2018-06-03T23:40:11.588Z,18.11
2018-06-03T23:42:40.352Z,18.23
2018-06-03T23:45:08.883Z,18.07
2018-06-03T23:47:37.383Z,18.05
2018-06-03T23:50:05.991Z,17.84
2018-06-03T23:52:34.480Z,17.95
2018-06-03T23:55:03.338Z,17.78
2018-06-03T23:57:31.871Z,18.06
